createdAt,value
2019-01-27T00:00:25.516Z,0.20
2019-01-27T00:01:10.476Z,0.20
2019-01-27T00:01:45.698Z,0.20
2019-01-27T00:02:21.342Z,0.20
2019-01-27T00:02:56.594Z,0.30
2019-01-27T00:03:31.794Z,0.20
2019-01-27T00:04:07.354Z,0.20
2019-01-27T00:04:42.655Z,0.20
2019-01-27T00:05:17.935Z,0.20
2019-01-27T00:05:53.374Z,0.20
2019-01-27T00:06:28.802Z,0.20
2019-01-27T00:07:04.234Z,0.20
2019-01-27T00:07:39.614Z,0.20
2019-01-27T00:08:15.014Z,0.30
2019-01-27T00:08:50.414Z,0.20
2019-01-27T00:09:25.758Z,0.30
2019-01-27T00:10:01.077Z,0.20
2019-01-27T00:10:36.698Z,0.20
2019-01-27T00:11:12.603Z,0.20
2019-01-27T00:11:47.818Z,0.30
2019-01-27T00:12:23.038Z,0.20
2019-01-27T00:12:58.461Z,0.20
2019-01-27T00:13:33.758Z,0.20
2019-01-27T00:14:09.000Z,0.20
2019-01-27T00:14:44.298Z,0.20
2019-01-27T00:15:19.637Z,0.20
2019-01-27T00:15:55.159Z,0.20
2019-01-27T00:16:30.409Z,0.20
2019-01-27T00:17:05.939Z,0.20
2019-01-27T00:17:41.418Z,0.20
2019-01-27T00:18:16.759Z,0.20
2019-01-27T00:18:52.118Z,0.20
2019-01-27T00:19:27.458Z,0.20
2019-01-27T00:20:02.979Z,0.20
2019-01-27T00:20:38.318Z,0.30
2019-01-27T00:21:13.858Z,0.20
2019-01-27T00:21:49.158Z,0.20
2019-01-27T00:22:24.398Z,0.30
2019-01-27T00:22:59.858Z,0.20
2019-01-27T00:23:35.338Z,0.30
2019-01-27T00:24:10.597Z,0.20
2019-01-27T00:24:46.018Z,0.20
2019-01-27T00:25:21.344Z,0.20
2019-01-27T00:25:56.678Z,0.30
2019-01-27T00:26:32.078Z,0.30
2019-01-27T00:27:07.498Z,0.30
2019-01-27T00:27:42.758Z,0.30
2019-01-27T00:28:18.099Z,0.20
2019-01-27T00:28:53.597Z,0.20
2019-01-27T00:29:28.958Z,0.20
2019-01-27T00:30:04.598Z,0.30
2019-01-27T00:30:40.018Z,0.20
2019-01-27T00:31:15.359Z,0.30
2019-01-27T00:31:50.778Z,0.30
2019-01-27T00:32:26.244Z,0.20
2019-01-27T00:33:01.636Z,0.30
2019-01-27T00:33:36.916Z,0.30
2019-01-27T00:34:12.275Z,0.30
2019-01-27T00:34:47.496Z,0.30
2019-01-27T00:35:22.858Z,0.30
2019-01-27T00:35:58.295Z,0.30
2019-01-27T00:36:33.656Z,0.20
2019-01-27T00:37:09.116Z,0.20
2019-01-27T00:37:44.496Z,0.20
2019-01-27T00:38:19.754Z,0.30
2019-01-27T00:38:54.973Z,0.30
2019-01-27T00:39:30.294Z,0.30
2019-01-27T00:40:05.953Z,0.30
2019-01-27T00:40:41.374Z,0.30
2019-01-27T00:41:16.678Z,0.30
2019-01-27T00:41:51.898Z,0.30
2019-01-27T00:42:27.138Z,0.30
2019-01-27T00:43:02.426Z,0.30
2019-01-27T00:43:37.898Z,0.30
2019-01-27T00:44:13.178Z,0.30
2019-01-27T00:44:48.578Z,0.30
2019-01-27T00:45:23.938Z,0.30
2019-01-27T00:45:59.334Z,0.30
2019-01-27T00:46:34.594Z,0.30
2019-01-27T00:47:09.933Z,0.30
2019-01-27T00:47:45.362Z,0.30
2019-01-27T00:48:20.577Z,0.30
2019-01-27T00:48:55.914Z,0.30
2019-01-27T00:49:31.233Z,0.30
2019-01-27T00:50:07.180Z,0.30
2019-01-27T00:50:42.436Z,0.30
2019-01-27T00:51:17.876Z,0.30
2019-01-27T00:51:53.156Z,0.30
2019-01-27T00:52:28.594Z,0.30
2019-01-27T00:53:04.013Z,0.30
2019-01-27T00:53:39.453Z,0.30
2019-01-27T00:54:14.794Z,0.30
2019-01-27T00:54:50.122Z,0.40
2019-01-27T00:55:25.502Z,0.30
2019-01-27T00:56:00.782Z,0.30
2019-01-27T00:56:36.094Z,0.40
2019-01-27T00:57:11.516Z,0.40
2019-01-27T00:57:46.754Z,0.40
2019-01-27T00:58:22.082Z,0.30
2019-01-27T00:58:57.314Z,0.30
2019-01-27T00:59:32.736Z,0.40
2019-01-27T01:00:10.084Z,0.30
2019-01-27T01:00:45.422Z,0.40
2019-01-27T01:01:20.858Z,0.30
2019-01-27T01:01:56.103Z,0.30
2019-01-27T01:02:31.436Z,0.30
2019-01-27T01:03:06.903Z,0.30
2019-01-27T01:03:42.274Z,0.40
2019-01-27T01:04:17.724Z,0.30
2019-01-27T01:04:53.146Z,0.30
2019-01-27T01:05:28.802Z,0.30
2019-01-27T01:06:04.653Z,0.30
2019-01-27T01:06:40.374Z,0.30
2019-01-27T01:07:15.713Z,0.30
2019-01-27T01:07:51.354Z,0.30
2019-01-27T01:08:26.582Z,0.30
2019-01-27T01:09:02.074Z,0.30
2019-01-27T01:09:37.436Z,0.30
2019-01-27T01:10:13.338Z,0.30
2019-01-27T01:10:48.576Z,0.30
2019-01-27T01:11:23.797Z,0.30
2019-01-27T01:11:59.135Z,0.30
2019-01-27T01:12:34.576Z,0.30
2019-01-27T01:13:09.893Z,0.30
2019-01-27T01:13:45.374Z,0.30
2019-01-27T01:14:20.660Z,0.30
2019-01-27T01:14:56.115Z,0.30
2019-01-27T01:15:31.414Z,0.30
2019-01-27T01:16:07.320Z,0.30
2019-01-27T01:16:42.676Z,0.30
2019-01-27T01:17:17.896Z,0.30
2019-01-27T01:17:53.243Z,0.30
2019-01-27T01:18:28.656Z,0.30
2019-01-27T01:19:04.056Z,0.30
2019-01-27T01:19:39.316Z,0.30
2019-01-27T01:20:17.016Z,0.30
2019-01-27T01:20:52.294Z,0.20
2019-01-27T01:21:27.534Z,0.20
2019-01-27T01:22:02.894Z,0.20
2019-01-27T01:22:38.213Z,0.20
2019-01-27T01:23:13.634Z,0.20
2019-01-27T01:23:49.116Z,0.20
2019-01-27T01:24:24.458Z,0.20
2019-01-27T01:24:59.781Z,0.20
2019-01-27T01:25:35.060Z,0.20
2019-01-27T01:26:10.375Z,0.20
2019-01-27T01:26:45.716Z,0.20
2019-01-27T01:27:21.035Z,0.20
2019-01-27T01:27:56.396Z,0.20
2019-01-27T01:28:31.715Z,0.20
2019-01-27T01:29:07.198Z,0.20
2019-01-27T01:29:42.538Z,0.20
2019-01-27T01:30:19.498Z,0.10
2019-01-27T01:30:54.857Z,0.10
2019-01-27T01:31:30.182Z,0.10
2019-01-27T01:32:07.342Z,0.10
2019-01-27T01:32:42.795Z,0.10
2019-01-27T01:33:18.224Z,0.10
2019-01-27T01:33:53.694Z,0.10
2019-01-27T01:34:28.975Z,0.10
2019-01-27T01:35:04.617Z,0.10
2019-01-27T01:35:40.137Z,0.10
2019-01-27T01:36:15.334Z,0.10
2019-01-27T01:36:50.562Z,0.10
2019-01-27T01:37:25.914Z,0.10
2019-01-27T01:38:01.253Z,0.10
2019-01-27T01:38:36.574Z,0.10
2019-01-27T01:39:11.913Z,0.10
2019-01-27T01:39:47.254Z,0.10
2019-01-27T01:40:22.933Z,0.10
2019-01-27T01:40:58.198Z,0.10
2019-01-27T01:41:33.513Z,0.10
2019-01-27T01:42:08.854Z,0.10
2019-01-27T01:42:44.193Z,0.10
2019-01-27T01:43:19.514Z,0.10
2019-01-27T01:43:54.773Z,0.10
2019-01-27T01:44:30.138Z,0.10
2019-01-27T01:45:08.637Z,0.00
2019-01-27T01:45:44.118Z,0.10
2019-01-27T01:46:19.516Z,0.00
2019-01-27T01:46:54.853Z,0.00
2019-01-27T01:47:30.594Z,0.00
2019-01-27T01:48:06.756Z,0.00
2019-01-27T01:48:42.015Z,0.00
2019-01-27T01:49:17.193Z,0.00
2019-01-27T01:49:52.513Z,0.00
2019-01-27T01:50:27.853Z,0.00
2019-01-27T01:51:03.233Z,0.00
2019-01-27T01:51:38.513Z,0.00
2019-01-27T01:52:13.837Z,0.00
2019-01-27T01:52:49.155Z,0.00
2019-01-27T01:53:24.495Z,0.00
2019-01-27T01:53:59.916Z,0.00
2019-01-27T01:54:35.395Z,0.00
2019-01-27T01:55:11.176Z,0.00
2019-01-27T01:55:46.398Z,0.00
2019-01-27T01:56:21.796Z,0.00
2019-01-27T01:56:57.082Z,0.00
2019-01-27T01:57:32.396Z,-0.10
2019-01-27T01:58:07.838Z,-0.10
2019-01-27T01:58:43.255Z,-0.10
2019-01-27T01:59:18.553Z,-0.10
2019-01-27T01:59:54.018Z,-0.10
2019-01-27T02:00:29.798Z,-0.10
2019-01-27T02:01:05.739Z,-0.10
2019-01-27T02:01:41.158Z,-0.10
2019-01-27T02:02:16.418Z,-0.10
2019-01-27T02:02:51.735Z,-0.10
2019-01-27T02:03:27.036Z,-0.10
2019-01-27T02:04:02.336Z,-0.10
2019-01-27T02:04:37.715Z,-0.10
2019-01-27T02:05:13.436Z,-0.10
2019-01-27T02:05:48.677Z,-0.10
2019-01-27T02:06:24.058Z,-0.20
2019-01-27T02:06:59.419Z,-0.20
2019-01-27T02:07:34.857Z,-0.10
2019-01-27T02:08:10.256Z,-0.10
2019-01-27T02:08:45.578Z,-0.10
2019-01-27T02:09:21.037Z,-0.10
2019-01-27T02:09:56.356Z,-0.10
2019-01-27T02:10:31.777Z,-0.10
2019-01-27T02:11:07.477Z,-0.10
2019-01-27T02:11:42.736Z,-0.10
2019-01-27T02:12:18.156Z,-0.10
2019-01-27T02:12:53.718Z,-0.10
2019-01-27T02:13:29.015Z,-0.10
2019-01-27T02:14:04.415Z,-0.20
2019-01-27T02:14:39.677Z,-0.10
2019-01-27T02:15:47.175Z,-0.10
2019-01-27T02:16:22.476Z,-0.10
2019-01-27T02:16:57.716Z,-0.10
2019-01-27T02:17:33.195Z,-0.10
2019-01-27T02:18:08.575Z,-0.10
2019-01-27T02:18:43.897Z,-0.10
2019-01-27T02:19:19.235Z,-0.10
2019-01-27T02:19:54.756Z,-0.10
2019-01-27T02:20:30.195Z,-0.10
2019-01-27T02:21:06.195Z,-0.10
2019-01-27T02:21:41.596Z,-0.20
2019-01-27T02:22:16.876Z,-0.20
2019-01-27T02:22:52.316Z,-0.10
2019-01-27T02:23:27.594Z,-0.10
2019-01-27T02:24:02.882Z,-0.10
2019-01-27T02:24:38.093Z,-0.10
2019-01-27T02:25:13.534Z,-0.10
2019-01-27T02:25:48.874Z,-0.10
2019-01-27T02:26:24.295Z,-0.10
2019-01-27T02:26:59.619Z,-0.10
2019-01-27T02:27:35.295Z,-0.10
2019-01-27T02:28:11.003Z,-0.10
2019-01-27T02:28:46.356Z,-0.10
2019-01-27T02:29:22.813Z,-0.10
2019-01-27T02:29:58.260Z,-0.10
2019-01-27T02:30:33.677Z,-0.10
2019-01-27T02:31:09.079Z,-0.10
2019-01-27T02:31:44.303Z,-0.10
2019-01-27T02:32:19.618Z,-0.10
2019-01-27T02:32:54.957Z,-0.10
2019-01-27T02:33:30.438Z,-0.10
2019-01-27T02:34:05.941Z,-0.10
2019-01-27T02:34:41.240Z,-0.10
2019-01-27T02:35:16.482Z,-0.10
2019-01-27T02:35:51.959Z,-0.10
2019-01-27T02:36:27.214Z,-0.10
2019-01-27T02:37:02.562Z,-0.10
2019-01-27T02:37:37.874Z,-0.10
2019-01-27T02:38:13.315Z,-0.10
2019-01-27T02:38:48.834Z,-0.10
2019-01-27T02:39:24.279Z,0.00
2019-01-27T02:39:59.614Z,-0.10
2019-01-27T02:40:34.939Z,-0.10
2019-01-27T02:41:10.359Z,-0.10
2019-01-27T02:41:45.695Z,-0.10
2019-01-27T02:42:21.135Z,-0.10
2019-01-27T02:42:57.414Z,-0.10
2019-01-27T02:43:32.613Z,-0.10
2019-01-27T02:44:08.053Z,-0.10
2019-01-27T02:44:43.318Z,-0.10
2019-01-27T02:45:18.780Z,-0.10
2019-01-27T02:45:54.055Z,-0.10
2019-01-27T02:46:29.496Z,-0.10
2019-01-27T02:47:04.736Z,-0.10
2019-01-27T02:47:39.997Z,-0.10
2019-01-27T02:48:15.415Z,-0.10
2019-01-27T02:48:50.659Z,-0.10
2019-01-27T02:49:26.040Z,-0.20
2019-01-27T02:50:01.315Z,-0.10
2019-01-27T02:50:36.634Z,-0.20
2019-01-27T02:51:11.873Z,-0.10
2019-01-27T02:51:47.293Z,-0.10
2019-01-27T02:52:22.754Z,-0.20
2019-01-27T02:52:58.154Z,-0.20
2019-01-27T02:53:33.574Z,-0.20
2019-01-27T02:54:09.014Z,-0.20
2019-01-27T02:54:44.235Z,-0.20
2019-01-27T02:55:19.495Z,-0.20
2019-01-27T02:55:54.995Z,-0.20
2019-01-27T02:56:30.576Z,-0.20
2019-01-27T02:57:06.175Z,-0.20
2019-01-27T02:57:41.495Z,-0.20
2019-01-27T02:58:16.717Z,-0.20
2019-01-27T02:58:52.015Z,-0.20
2019-01-27T02:59:27.219Z,-0.20
2019-01-27T03:00:02.536Z,-0.20
2019-01-27T03:00:38.055Z,-0.20
2019-01-27T03:01:13.315Z,-0.20
2019-01-27T03:01:48.636Z,-0.20
2019-01-27T03:02:23.877Z,-0.20
2019-01-27T03:02:59.255Z,-0.20
2019-01-27T03:03:34.675Z,-0.20
2019-01-27T03:04:10.155Z,-0.20
2019-01-27T03:04:45.533Z,-0.20
2019-01-27T03:05:58.353Z,-0.20
2019-01-27T03:06:42.174Z,-0.20
2019-01-27T03:07:24.382Z,-0.20
2019-01-27T03:07:59.614Z,-0.20
2019-01-27T03:08:41.274Z,-0.20
2019-01-27T03:09:21.434Z,-0.20
2019-01-27T03:09:56.705Z,-0.20
2019-01-27T03:10:31.973Z,-0.20
2019-01-27T03:11:07.575Z,-0.20
2019-01-27T03:11:50.206Z,-0.20
2019-01-27T03:12:25.516Z,-0.20
2019-01-27T03:13:00.818Z,-0.20
2019-01-27T03:13:36.276Z,-0.10
2019-01-27T03:14:11.701Z,-0.10
2019-01-27T03:14:47.077Z,-0.20
2019-01-27T03:15:23.200Z,-0.10
2019-01-27T03:15:58.454Z,-0.10
2019-01-27T03:16:33.794Z,-0.10
2019-01-27T03:17:10.554Z,-0.10
2019-01-27T03:17:45.938Z,-0.10
2019-01-27T03:18:21.257Z,-0.10
2019-01-27T03:18:56.578Z,-0.10
2019-01-27T03:19:31.819Z,-0.10
2019-01-27T03:20:08.979Z,-0.10
2019-01-27T03:20:44.416Z,-0.10
2019-01-27T03:21:19.736Z,-0.10
2019-01-27T03:21:55.355Z,-0.10
2019-01-27T03:22:30.596Z,-0.10
2019-01-27T03:23:06.256Z,-0.10
2019-01-27T03:23:41.595Z,-0.10
2019-01-27T03:24:16.896Z,-0.10
2019-01-27T03:24:52.216Z,-0.10
2019-01-27T03:25:27.656Z,-0.10
2019-01-27T03:26:02.974Z,-0.10
2019-01-27T03:26:38.416Z,-0.10
2019-01-27T03:27:13.794Z,-0.10
2019-01-27T03:27:49.082Z,-0.10
2019-01-27T03:28:24.295Z,-0.10
2019-01-27T03:28:59.619Z,0.00
2019-01-27T03:29:34.853Z,0.00
2019-01-27T03:30:17.217Z,0.00
2019-01-27T03:30:52.517Z,0.00
2019-01-27T03:31:27.797Z,0.00
2019-01-27T03:32:03.126Z,0.00
2019-01-27T03:32:38.543Z,0.00
2019-01-27T03:33:13.775Z,0.00
2019-01-27T03:33:49.216Z,0.00
2019-01-27T03:34:24.535Z,0.00
2019-01-27T03:34:59.874Z,0.00
2019-01-27T03:35:35.536Z,0.00
2019-01-27T03:36:10.834Z,0.00
2019-01-27T03:36:46.154Z,0.00
2019-01-27T03:37:21.475Z,0.00
2019-01-27T03:37:56.875Z,0.00
2019-01-27T03:38:32.134Z,0.00
2019-01-27T03:39:11.435Z,0.00
2019-01-27T03:39:46.714Z,0.00
2019-01-27T03:40:22.279Z,0.00
2019-01-27T03:40:57.576Z,0.00
2019-01-27T03:41:32.935Z,0.00
2019-01-27T03:42:08.256Z,0.00
2019-01-27T03:42:43.576Z,0.00
2019-01-27T03:43:18.956Z,0.00
2019-01-27T03:43:54.314Z,0.00
2019-01-27T03:44:29.857Z,0.00
2019-01-27T03:45:05.839Z,0.00
2019-01-27T03:45:41.257Z,0.00
2019-01-27T03:46:16.558Z,0.00
2019-01-27T03:46:51.915Z,0.00
2019-01-27T03:47:27.275Z,0.00
2019-01-27T03:48:02.713Z,0.00
2019-01-27T03:48:38.075Z,0.00
2019-01-27T03:49:13.334Z,0.00
2019-01-27T03:49:48.636Z,0.00
2019-01-27T03:50:23.835Z,0.00
2019-01-27T03:50:59.095Z,0.00
2019-01-27T03:51:34.375Z,0.00
2019-01-27T03:52:09.774Z,0.00
2019-01-27T03:52:45.174Z,0.00
2019-01-27T03:53:20.476Z,0.00
2019-01-27T03:53:55.859Z,0.00
2019-01-27T03:54:31.116Z,0.00
2019-01-27T03:55:07.836Z,0.00
2019-01-27T03:55:43.196Z,0.00
2019-01-27T03:56:18.577Z,0.00
2019-01-27T03:56:53.984Z,0.00
2019-01-27T03:57:29.296Z,0.00
2019-01-27T03:58:04.936Z,0.00
2019-01-27T03:58:40.255Z,0.00
2019-01-27T03:59:15.674Z,0.00
2019-01-27T03:59:51.013Z,0.00
2019-01-27T04:00:26.897Z,0.00
2019-01-27T04:01:02.207Z,0.00
2019-01-27T04:01:37.535Z,0.10
2019-01-27T04:02:12.834Z,0.00
2019-01-27T04:02:48.273Z,0.00
2019-01-27T04:03:23.597Z,0.00
2019-01-27T04:03:58.934Z,0.00
2019-01-27T04:04:34.448Z,0.00
2019-01-27T04:05:09.962Z,0.10
2019-01-27T04:05:45.213Z,0.00
2019-01-27T04:06:20.555Z,0.00
2019-01-27T04:06:55.876Z,0.00
2019-01-27T04:07:31.093Z,0.00
2019-01-27T04:08:06.514Z,0.10
2019-01-27T04:08:41.963Z,0.10
2019-01-27T04:09:17.494Z,0.00
2019-01-27T04:09:52.854Z,0.00
2019-01-27T04:10:28.289Z,0.10
2019-01-27T04:11:03.835Z,0.00
2019-01-27T04:11:39.116Z,0.10
2019-01-27T04:12:14.442Z,0.10
2019-01-27T04:12:50.115Z,0.10
2019-01-27T04:13:25.395Z,0.10
2019-01-27T04:14:00.757Z,0.10
2019-01-27T04:14:36.015Z,0.10
2019-01-27T04:15:11.555Z,0.10
2019-01-27T04:15:47.014Z,0.10
2019-01-27T04:16:22.434Z,0.10
2019-01-27T04:16:57.686Z,0.10
2019-01-27T04:17:33.014Z,0.10
2019-01-27T04:18:08.355Z,0.10
2019-01-27T04:18:43.674Z,0.10
2019-01-27T04:19:19.143Z,0.10
2019-01-27T04:19:54.421Z,0.10
2019-01-27T04:20:29.918Z,0.10
2019-01-27T04:21:05.438Z,0.10
2019-01-27T04:21:40.696Z,0.10
2019-01-27T04:22:15.936Z,0.10
2019-01-27T04:22:51.374Z,0.20
2019-01-27T04:23:26.696Z,0.10
2019-01-27T04:24:02.038Z,0.20
2019-01-27T04:24:37.355Z,0.10
2019-01-27T04:25:12.916Z,0.10
2019-01-27T04:25:49.876Z,0.10
2019-01-27T04:26:25.276Z,0.20
2019-01-27T04:27:00.537Z,0.10
2019-01-27T04:27:36.038Z,0.10
2019-01-27T04:28:11.548Z,0.20
2019-01-27T04:28:46.920Z,0.20
2019-01-27T04:29:22.234Z,0.20
2019-01-27T04:29:57.557Z,0.20
2019-01-27T04:30:37.533Z,0.20
2019-01-27T04:31:12.978Z,0.20
2019-01-27T04:31:48.194Z,0.20
2019-01-27T04:32:23.513Z,0.20
2019-01-27T04:32:58.874Z,0.20
2019-01-27T04:33:34.279Z,0.20
2019-01-27T04:34:09.515Z,0.20
2019-01-27T04:34:44.734Z,0.20
2019-01-27T04:35:19.954Z,0.20
2019-01-27T04:35:55.254Z,0.20
2019-01-27T04:36:30.694Z,0.20
2019-01-27T04:37:05.954Z,0.20
2019-01-27T04:37:41.675Z,0.20
2019-01-27T04:38:16.935Z,0.20
2019-01-27T04:38:52.295Z,0.20
2019-01-27T04:39:27.635Z,0.20
2019-01-27T04:40:07.334Z,0.20
2019-01-27T04:40:42.740Z,0.20
2019-01-27T04:41:18.019Z,0.20
2019-01-27T04:41:53.419Z,0.20
2019-01-27T04:42:28.779Z,0.20
2019-01-27T04:43:04.294Z,0.20
2019-01-27T04:43:39.535Z,0.20
2019-01-27T04:44:14.954Z,0.20
2019-01-27T04:44:50.298Z,0.20
2019-01-27T04:45:32.418Z,0.20
2019-01-27T04:46:07.719Z,0.20
2019-01-27T04:46:43.035Z,0.20
2019-01-27T04:47:18.422Z,0.10
2019-01-27T04:47:53.894Z,0.20
2019-01-27T04:48:29.639Z,0.20
2019-01-27T04:49:05.157Z,0.20
2019-01-27T04:49:40.597Z,0.20
2019-01-27T04:50:16.178Z,0.10
2019-01-27T04:50:51.382Z,0.20
2019-01-27T04:51:26.658Z,0.20
2019-01-27T04:52:01.898Z,0.20
2019-01-27T04:52:37.399Z,0.20
2019-01-27T04:53:12.653Z,0.20
2019-01-27T04:53:47.994Z,0.20
2019-01-27T04:54:23.342Z,0.20
2019-01-27T04:54:58.656Z,0.20
2019-01-27T04:55:33.981Z,0.20
2019-01-27T04:56:09.315Z,0.20
2019-01-27T04:56:44.559Z,0.20
2019-01-27T04:57:19.917Z,0.20
2019-01-27T04:57:55.304Z,0.20
2019-01-27T04:58:30.661Z,0.20
2019-01-27T04:59:06.214Z,0.20
2019-01-27T04:59:41.574Z,0.20
2019-01-27T05:00:19.114Z,0.20
2019-01-27T05:00:54.374Z,0.20
2019-01-27T05:01:29.615Z,0.20
2019-01-27T05:02:05.120Z,0.20
2019-01-27T05:02:45.316Z,0.20
2019-01-27T05:03:58.197Z,0.20
2019-01-27T05:04:36.856Z,0.20
2019-01-27T05:05:12.359Z,0.20
2019-01-27T05:05:47.816Z,0.20
2019-01-27T05:06:23.144Z,0.20
2019-01-27T05:06:58.523Z,0.20
2019-01-27T05:07:33.874Z,0.20
2019-01-27T05:08:09.214Z,0.20
2019-01-27T05:08:44.434Z,0.20
2019-01-27T05:09:19.742Z,0.20
2019-01-27T05:09:54.914Z,0.20
2019-01-27T05:10:30.176Z,0.20
2019-01-27T05:11:05.503Z,0.20
2019-01-27T05:11:40.779Z,0.20
2019-01-27T05:12:16.174Z,0.20
2019-01-27T05:12:51.502Z,0.20
2019-01-27T05:13:26.723Z,0.20
2019-01-27T05:14:02.030Z,0.30
2019-01-27T05:14:37.480Z,0.20
2019-01-27T05:15:14.256Z,0.20
2019-01-27T05:15:49.535Z,0.30
2019-01-27T05:16:24.755Z,0.30
2019-01-27T05:16:59.876Z,0.30
2019-01-27T05:17:35.097Z,0.30
2019-01-27T05:18:10.336Z,0.30
2019-01-27T05:18:45.656Z,0.30
2019-01-27T05:19:21.035Z,0.30
2019-01-27T05:19:56.356Z,0.30
2019-01-27T05:20:31.896Z,0.30
2019-01-27T05:21:07.321Z,0.30
2019-01-27T05:21:42.639Z,0.30
2019-01-27T05:22:17.899Z,0.30
2019-01-27T05:22:53.298Z,0.30
2019-01-27T05:23:28.618Z,0.30
2019-01-27T05:24:03.937Z,0.30
2019-01-27T05:24:39.176Z,0.40
2019-01-27T05:25:14.820Z,0.30
2019-01-27T05:25:50.256Z,0.30
2019-01-27T05:26:25.678Z,0.30
2019-01-27T05:27:01.014Z,0.30
2019-01-27T05:27:36.334Z,0.30
2019-01-27T05:28:11.674Z,0.30
2019-01-27T05:28:47.001Z,0.30
2019-01-27T05:29:22.393Z,0.30
2019-01-27T05:29:57.654Z,0.30
2019-01-27T05:30:32.943Z,0.30
2019-01-27T05:31:08.240Z,0.30
2019-01-27T05:31:43.479Z,0.30
2019-01-27T05:32:18.704Z,0.30
2019-01-27T05:32:54.118Z,0.30
2019-01-27T05:33:29.334Z,0.30
2019-01-27T05:34:04.796Z,0.30
2019-01-27T05:34:40.074Z,0.30
2019-01-27T05:35:15.461Z,0.30
2019-01-27T05:35:50.734Z,0.20
2019-01-27T05:36:26.054Z,0.20
2019-01-27T05:37:01.355Z,0.20
2019-01-27T05:37:36.598Z,0.20
2019-01-27T05:38:11.939Z,0.20
2019-01-27T05:38:47.359Z,0.20
2019-01-27T05:39:22.697Z,0.20
2019-01-27T05:39:58.178Z,0.20
2019-01-27T05:40:33.458Z,0.20
2019-01-27T05:41:08.987Z,0.10
2019-01-27T05:41:44.313Z,0.10
2019-01-27T05:42:19.735Z,0.10
2019-01-27T05:42:54.973Z,0.10
2019-01-27T05:43:30.393Z,0.10
2019-01-27T05:44:06.035Z,0.10
2019-01-27T05:44:41.354Z,0.10
2019-01-27T05:45:16.854Z,0.00
2019-01-27T05:45:52.115Z,0.00
2019-01-27T05:46:27.453Z,0.00
2019-01-27T05:47:02.685Z,0.00
2019-01-27T05:47:38.115Z,0.00
2019-01-27T05:48:13.533Z,0.00
2019-01-27T05:48:48.956Z,0.00
2019-01-27T05:49:24.298Z,0.00
2019-01-27T05:49:59.728Z,0.00
2019-01-27T05:50:35.189Z,0.00
2019-01-27T05:51:10.497Z,-0.10
2019-01-27T05:51:45.916Z,-0.10
2019-01-27T05:52:21.337Z,-0.10
2019-01-27T05:52:56.754Z,-0.10
2019-01-27T05:53:32.473Z,0.00
2019-01-27T05:54:07.754Z,-0.10
2019-01-27T05:54:43.073Z,-0.10
2019-01-27T05:55:18.398Z,-0.10
2019-01-27T05:55:53.788Z,-0.10
2019-01-27T05:56:29.067Z,-0.20
2019-01-27T05:57:04.474Z,-0.20
2019-01-27T05:57:39.916Z,-0.20
2019-01-27T05:58:15.235Z,-0.30
2019-01-27T05:58:50.577Z,-0.30
2019-01-27T05:59:25.896Z,-0.30
2019-01-27T06:00:01.236Z,-0.40
2019-01-27T06:00:42.795Z,-0.40
2019-01-27T06:01:18.195Z,-0.50
2019-01-27T06:01:53.604Z,-0.50
2019-01-27T06:02:29.004Z,-0.50
2019-01-27T06:03:04.478Z,-0.60
2019-01-27T06:03:39.773Z,-0.60
2019-01-27T06:04:16.399Z,-0.60
2019-01-27T06:04:51.914Z,-0.70
2019-01-27T06:05:27.653Z,-0.70
2019-01-27T06:06:03.034Z,-0.70
2019-01-27T06:06:38.493Z,-0.80
2019-01-27T06:07:14.198Z,-0.80
2019-01-27T06:07:49.494Z,-0.80
2019-01-27T06:08:24.942Z,-0.80
2019-01-27T06:09:00.262Z,-0.80
2019-01-27T06:09:35.695Z,-0.90
2019-01-27T06:10:11.814Z,-0.90
2019-01-27T06:10:47.195Z,-0.90
2019-01-27T06:11:22.454Z,-0.90
2019-01-27T06:11:57.695Z,-0.90
2019-01-27T06:12:33.114Z,-0.90
2019-01-27T06:13:08.435Z,-0.90
2019-01-27T06:13:43.714Z,-0.90
2019-01-27T06:14:19.034Z,-0.90
2019-01-27T06:14:54.437Z,-0.80
2019-01-27T06:15:29.802Z,-0.80
2019-01-27T06:16:05.219Z,-0.80
2019-01-27T06:16:40.662Z,-0.80
2019-01-27T06:17:15.993Z,-0.80
2019-01-27T06:17:51.422Z,-0.80
2019-01-27T06:18:26.737Z,-0.70
2019-01-27T06:19:02.074Z,-0.70
2019-01-27T06:19:37.382Z,-0.70
2019-01-27T06:20:13.793Z,-0.70
2019-01-27T06:20:49.103Z,-0.70
2019-01-27T06:21:24.359Z,-0.60
2019-01-27T06:21:59.762Z,-0.60
2019-01-27T06:22:35.039Z,-0.60
2019-01-27T06:23:10.295Z,-0.60
2019-01-27T06:23:46.039Z,-0.50
2019-01-27T06:24:21.298Z,-0.50
2019-01-27T06:24:56.505Z,-0.50
2019-01-27T06:25:31.858Z,-0.50
2019-01-27T06:26:07.218Z,-0.50
2019-01-27T06:26:42.558Z,-0.50
2019-01-27T06:27:18.338Z,-0.40
2019-01-27T06:27:53.776Z,-0.40
2019-01-27T06:28:29.056Z,-0.40
2019-01-27T06:29:04.494Z,-0.40
2019-01-27T06:29:39.816Z,-0.40
2019-01-27T06:30:17.898Z,-0.40
2019-01-27T06:30:53.395Z,-0.30
2019-01-27T06:31:28.676Z,-0.30
2019-01-27T06:32:04.096Z,-0.30
2019-01-27T06:32:50.916Z,-0.30
2019-01-27T06:33:45.178Z,-0.30
2019-01-27T06:34:21.476Z,-0.30
2019-01-27T06:34:56.937Z,-0.30
2019-01-27T06:35:32.216Z,-0.30
2019-01-27T06:36:07.536Z,-0.30
2019-01-27T06:36:42.816Z,-0.30
2019-01-27T06:37:24.725Z,-0.30
2019-01-27T06:37:55.335Z,-0.30
2019-01-27T06:38:30.397Z,-0.30
2019-01-27T06:39:08.375Z,-0.40
2019-01-27T06:39:43.424Z,-0.40
2019-01-27T06:40:18.516Z,-0.40
2019-01-27T06:40:53.941Z,-0.40
2019-01-27T06:41:29.244Z,-0.40
2019-01-27T06:42:04.804Z,-0.40
2019-01-27T06:42:40.097Z,-0.50
2019-01-27T06:43:15.256Z,-0.50
2019-01-27T06:43:50.656Z,-0.50
2019-01-27T06:44:25.920Z,-0.50
2019-01-27T06:45:01.200Z,-0.50
2019-01-27T06:45:36.436Z,-0.50
2019-01-27T06:46:11.756Z,-0.40
2019-01-27T06:46:47.097Z,-0.40
2019-01-27T06:47:22.416Z,-0.40
2019-01-27T06:47:57.656Z,-0.40
2019-01-27T06:48:33.005Z,-0.30
2019-01-27T06:49:08.416Z,-0.40
2019-01-27T06:49:43.856Z,-0.30
2019-01-27T06:50:19.398Z,-0.30
2019-01-27T06:50:54.830Z,-0.20
2019-01-27T06:51:30.259Z,-0.20
2019-01-27T06:52:05.762Z,-0.20
2019-01-27T06:52:41.094Z,-0.20
2019-01-27T06:53:16.422Z,-0.20
2019-01-27T06:53:51.862Z,-0.20
2019-01-27T06:54:27.175Z,-0.10
2019-01-27T06:55:02.574Z,-0.10
2019-01-27T06:55:37.934Z,-0.10
2019-01-27T06:56:13.273Z,0.00
2019-01-27T06:56:48.602Z,0.00
2019-01-27T06:57:23.915Z,0.00
2019-01-27T06:57:59.295Z,0.10
2019-01-27T06:58:52.398Z,0.10
2019-01-27T06:59:38.198Z,0.10
2019-01-27T07:00:50.974Z,0.20
2019-01-27T07:01:38.094Z,0.30
2019-01-27T07:02:32.354Z,0.30
2019-01-27T07:03:20.794Z,0.40
2019-01-27T07:04:15.158Z,0.50
2019-01-27T07:04:58.116Z,0.50
2019-01-27T07:05:52.336Z,0.60
2019-01-27T07:06:46.721Z,0.60
2019-01-27T07:07:30.236Z,0.70
2019-01-27T07:08:30.756Z,0.70
2019-01-27T07:09:29.137Z,0.70
2019-01-27T07:10:27.174Z,0.80
2019-01-27T07:11:30.014Z,0.80
2019-01-27T07:12:24.434Z,0.80
2019-01-27T07:13:08.890Z,0.80
2019-01-27T07:14:21.473Z,0.80
2019-01-27T07:15:11.953Z,0.90
2019-01-27T07:16:06.034Z,0.90
2019-01-27T07:17:12.894Z,0.90
2019-01-27T07:18:07.382Z,0.90
2019-01-27T07:18:57.458Z,1.00
2019-01-27T07:19:54.681Z,1.00
2019-01-27T07:20:38.938Z,1.10
2019-01-27T07:21:32.059Z,1.10
2019-01-27T07:22:30.778Z,1.10
2019-01-27T07:23:40.687Z,1.20
2019-01-27T07:24:31.186Z,1.20
2019-01-27T07:25:36.098Z,1.20
2019-01-27T07:26:29.638Z,1.20
2019-01-27T07:27:37.018Z,1.30
2019-01-27T07:28:31.178Z,1.40
2019-01-27T07:29:37.762Z,1.50
2019-01-27T07:30:34.600Z,1.50
2019-01-27T07:31:18.818Z,1.50
2019-01-27T07:32:13.099Z,1.50
2019-01-27T07:32:57.671Z,1.60
2019-01-27T07:33:48.839Z,1.60
2019-01-27T07:34:41.260Z,1.60
2019-01-27T07:35:36.908Z,1.70
2019-01-27T07:36:37.498Z,1.70
2019-01-27T07:37:37.282Z,1.70
2019-01-27T07:38:22.241Z,1.80
2019-01-27T07:39:20.161Z,1.80
2019-01-27T07:40:18.361Z,1.80
2019-01-27T07:41:00.261Z,1.80
2019-01-27T07:41:57.582Z,1.80
2019-01-27T07:42:55.661Z,1.80
2019-01-27T07:43:53.281Z,1.90
2019-01-27T07:44:54.736Z,1.80
2019-01-27T07:45:55.168Z,1.80
2019-01-27T07:47:04.920Z,1.80
2019-01-27T07:47:49.980Z,1.80
2019-01-27T07:48:50.586Z,1.80
2019-01-27T07:50:00.243Z,1.90
2019-01-27T07:50:44.998Z,1.90
2019-01-27T07:51:38.317Z,2.00
2019-01-27T07:52:31.255Z,2.10
2019-01-27T07:53:13.575Z,2.30
2019-01-27T07:53:59.645Z,2.40
2019-01-27T07:54:51.653Z,2.50
2019-01-27T07:55:50.462Z,2.60
2019-01-27T07:56:51.740Z,2.70
2019-01-27T07:57:40.822Z,2.70
2019-01-27T07:58:48.141Z,2.80
2019-01-27T07:59:48.702Z,2.90
2019-01-27T08:00:46.981Z,2.90
2019-01-27T08:01:40.940Z,2.90
2019-01-27T08:02:27.751Z,2.90
2019-01-27T08:03:23.021Z,2.90
2019-01-27T08:04:29.901Z,2.90
2019-01-27T08:05:31.342Z,2.90
2019-01-27T08:06:26.570Z,2.80
2019-01-27T08:07:15.980Z,2.80
2019-01-27T08:08:19.580Z,2.90
2019-01-27T08:09:32.580Z,2.90
2019-01-27T08:10:28.198Z,2.90
2019-01-27T08:11:14.381Z,3.00
2019-01-27T08:12:27.381Z,3.10
2019-01-27T08:13:28.221Z,3.10
2019-01-27T08:14:22.142Z,3.10
2019-01-27T08:15:05.821Z,3.30
2019-01-27T08:16:06.541Z,3.50
2019-01-27T08:17:00.301Z,3.60
2019-01-27T08:18:03.981Z,3.80
2019-01-27T08:18:56.341Z,3.90
2019-01-27T08:19:57.540Z,4.10